createdAt,value
2019-06-07T00:00:40.492Z,99.90
2019-06-07T00:03:23.999Z,99.90
2019-06-07T00:05:45.426Z,99.90
2019-06-07T00:08:24.867Z,99.90
2019-06-07T00:10:49.594Z,99.90
2019-06-07T00:13:20.851Z,99.90
2019-06-07T00:15:52.357Z,99.90
2019-06-07T00:18:25.981Z,99.90
2019-06-07T00:20:58.221Z,99.90
2019-06-07T00:23:29.402Z,99.90
2019-06-07T00:26:00.712Z,99.90
2019-06-07T00:28:31.906Z,99.90
2019-06-07T00:31:03.817Z,99.90
2019-06-07T00:33:35.663Z,99.90
2019-06-07T00:36:07.293Z,99.90
2019-06-07T00:38:38.773Z,99.90
2019-06-07T00:41:10.111Z,99.90
2019-06-07T00:43:41.418Z,99.90
2019-06-07T00:46:14.421Z,99.90
2019-06-07T00:48:45.507Z,99.90
2019-06-07T00:51:18.744Z,99.90
2019-06-07T00:53:50.232Z,99.90
2019-06-07T00:56:22.195Z,99.90
2019-06-07T00:59:10.767Z,99.90
2019-06-07T01:01:28.367Z,99.90
2019-06-07T01:04:00.082Z,99.90
2019-06-07T01:06:31.677Z,99.90
2019-06-07T01:09:02.906Z,99.90
2019-06-07T01:11:36.228Z,99.90
2019-06-07T01:14:07.769Z,99.90
2019-06-07T01:16:56.274Z,99.90
2019-06-07T01:19:12.354Z,99.90
2019-06-07T01:21:43.600Z,99.90
2019-06-07T01:24:15.344Z,99.90
2019-06-07T01:26:46.487Z,99.90
2019-06-07T01:29:19.537Z,99.90
2019-06-07T01:31:51.055Z,99.90
2019-06-07T01:34:25.738Z,99.90
2019-06-07T01:36:55.732Z,99.90
2019-06-07T01:39:29.726Z,99.90
2019-06-07T01:42:00.179Z,99.90
2019-06-07T01:44:31.633Z,99.90
2019-06-07T01:47:03.161Z,99.90
2019-06-07T01:49:35.130Z,99.90
2019-06-07T01:52:06.541Z,99.90
2019-06-07T01:54:58.337Z,99.90
2019-06-07T01:57:30.552Z,99.90
2019-06-07T01:59:43.927Z,99.90
2019-06-07T02:02:15.461Z,99.90
2019-06-07T02:04:48.183Z,99.90
2019-06-07T02:07:24.054Z,99.90
2019-06-07T02:09:53.300Z,99.90
2019-06-07T02:12:32.244Z,99.90
2019-06-07T02:14:57.939Z,99.90
2019-06-07T02:17:30.916Z,99.90
2019-06-07T02:20:02.166Z,99.90
2019-06-07T02:22:33.429Z,99.90
2019-06-07T02:25:35.166Z,99.90
2019-06-07T02:27:39.207Z,99.90
2019-06-07T02:32:44.473Z,99.90
2019-06-07T02:35:16.223Z,99.90
2019-06-07T02:37:47.560Z,99.90
2019-06-07T02:40:19.207Z,99.90
2019-06-07T02:42:50.699Z,99.90
2019-06-07T02:45:24.811Z,99.90
2019-06-07T02:47:56.668Z,99.90
2019-06-07T02:50:31.035Z,99.90
2019-06-07T02:53:00.828Z,99.90
2019-06-07T02:55:44.417Z,99.90
2019-06-07T02:58:05.067Z,99.90
2019-06-07T03:01:06.553Z,99.90
2019-06-07T03:03:22.282Z,99.90
2019-06-07T03:05:54.590Z,99.90
2019-06-07T03:08:28.435Z,99.90
2019-06-07T03:11:01.409Z,99.90
2019-06-07T03:13:37.503Z,99.90
2019-06-07T03:16:10.659Z,99.90
2019-06-07T03:18:56.793Z,99.90
2019-06-07T03:21:29.574Z,99.90
2019-06-07T03:24:01.576Z,99.90
2019-06-07T03:26:45.637Z,99.90
2019-06-07T03:29:06.412Z,99.90
2019-06-07T03:31:41.554Z,99.90
2019-06-07T03:34:10.351Z,99.90
2019-06-07T03:36:41.769Z,99.90
2019-06-07T03:39:13.237Z,99.90
2019-06-07T03:42:04.640Z,99.90
2019-06-07T03:44:17.788Z,99.90
2019-06-07T03:46:49.055Z,99.90
2019-06-07T03:49:21.005Z,99.90
2019-06-07T03:51:52.432Z,99.90
2019-06-07T03:54:23.882Z,99.90
2019-06-07T03:56:55.542Z,99.90
2019-06-07T03:59:28.429Z,99.90
2019-06-07T04:01:59.731Z,99.90
2019-06-07T04:04:32.456Z,99.90
2019-06-07T04:07:04.060Z,99.90
2019-06-07T04:09:41.880Z,99.90
2019-06-07T04:12:09.560Z,99.90
2019-06-07T04:14:42.846Z,99.90
2019-06-07T04:17:14.078Z,99.90
2019-06-07T04:19:45.559Z,99.90
2019-06-07T04:22:16.735Z,99.90
2019-06-07T04:24:48.050Z,99.90
2019-06-07T04:27:19.267Z,99.90
2019-06-07T04:30:06.324Z,99.90
2019-06-07T04:32:23.503Z,99.90
2019-06-07T04:34:54.787Z,99.90
2019-06-07T04:37:28.499Z,99.90
2019-06-07T04:40:01.838Z,99.90
2019-06-07T04:42:41.394Z,99.90
2019-06-07T04:45:32.613Z,99.90
2019-06-07T04:47:46.551Z,99.90
2019-06-07T04:50:19.244Z,99.90
2019-06-07T04:52:52.449Z,99.90
2019-06-07T04:55:23.713Z,99.90
2019-06-07T04:57:54.949Z,99.90
2019-06-07T05:00:54.120Z,99.90
2019-06-07T05:03:07.171Z,99.90
2019-06-07T05:05:43.110Z,99.90
2019-06-07T05:08:26.925Z,99.90
2019-06-07T05:10:44.294Z,99.90
2019-06-07T05:13:15.564Z,99.90
2019-06-07T05:15:47.126Z,99.90
2019-06-07T05:18:18.354Z,99.90
2019-06-07T05:20:49.907Z,99.90
2019-06-07T05:24:00.153Z,99.90
2019-06-07T05:25:53.884Z,99.90
2019-06-07T05:28:25.749Z,99.90
2019-06-07T05:31:04.782Z,99.90
2019-06-07T05:33:31.805Z,99.90
2019-06-07T05:36:03.873Z,99.90
2019-06-07T05:38:36.134Z,99.90
2019-06-07T05:41:08.034Z,99.90
2019-06-07T05:43:45.561Z,99.90
2019-06-07T05:46:13.299Z,99.90
2019-06-07T05:48:45.082Z,99.90
2019-06-07T05:51:16.571Z,99.90
2019-06-07T05:53:47.719Z,99.90
2019-06-07T05:56:19.184Z,99.90
2019-06-07T05:58:50.225Z,99.90
2019-06-07T06:03:54.577Z,99.90
2019-06-07T06:06:25.788Z,99.90
2019-06-07T06:09:12.929Z,99.90
2019-06-07T06:11:47.026Z,99.90
2019-06-07T06:14:08.167Z,99.90
2019-06-07T06:16:37.191Z,99.90
2019-06-07T06:19:08.579Z,99.90
2019-06-07T06:21:40.982Z,99.90
2019-06-07T06:24:13.003Z,99.90
2019-06-07T06:26:51.221Z,99.90
2019-06-07T06:29:17.418Z,99.90
2019-06-07T06:32:40.067Z,99.90
2019-06-07T06:34:21.606Z,99.90
2019-06-07T06:36:54.265Z,99.90
2019-06-07T06:39:25.468Z,99.90
2019-06-07T06:42:03.346Z,99.90
2019-06-07T06:44:30.355Z,99.90
2019-06-07T06:47:01.606Z,99.90
2019-06-07T06:49:34.278Z,99.90
2019-06-07T06:52:05.696Z,99.90
2019-06-07T06:54:43.040Z,99.90
2019-06-07T06:57:19.543Z,99.90
2019-06-07T06:59:47.599Z,99.90
2019-06-07T07:02:17.562Z,99.90
2019-06-07T07:04:53.493Z,99.90
2019-06-07T07:07:22.186Z,99.90
2019-06-07T07:09:58.727Z,99.90
2019-06-07T07:12:26.841Z,99.90
2019-06-07T07:14:58.062Z,99.90
2019-06-07T07:17:47.564Z,99.90
2019-06-07T07:20:03.085Z,99.90
2019-06-07T07:22:34.582Z,99.90
2019-06-07T07:25:07.105Z,99.90
2019-06-07T07:27:38.294Z,99.90
2019-06-07T07:30:35.890Z,99.90
2019-06-07T07:32:45.604Z,99.90
2019-06-07T07:35:15.990Z,99.90
2019-06-07T07:37:53.525Z,99.90
2019-06-07T07:40:56.206Z,99.90
2019-06-07T07:42:55.043Z,99.90
2019-06-07T07:45:25.801Z,99.90
2019-06-07T07:48:14.201Z,99.90
2019-06-07T07:50:30.193Z,99.90
2019-06-07T07:53:01.325Z,99.90
2019-06-07T07:55:33.038Z,99.90
2019-06-07T07:58:04.362Z,99.90
2019-06-07T08:01:07.874Z,99.90
2019-06-07T08:03:11.604Z,99.90
2019-06-07T08:05:45.637Z,99.90
2019-06-07T08:08:20.511Z,99.90
2019-06-07T08:10:55.698Z,99.90
2019-06-07T08:13:27.407Z,99.90
2019-06-07T08:16:00.380Z,99.90
2019-06-07T08:18:30.628Z,99.90
2019-06-07T08:21:21.414Z,99.90
2019-06-07T08:23:34.824Z,99.90
2019-06-07T08:26:06.605Z,99.90
2019-06-07T08:28:37.932Z,99.90
2019-06-07T08:31:09.467Z,99.90
2019-06-07T08:33:40.659Z,99.90
2019-06-07T08:36:20.253Z,99.90
2019-06-07T08:38:48.284Z,99.90
2019-06-07T08:41:19.309Z,99.90
2019-06-07T08:43:51.350Z,99.90
2019-06-07T08:46:23.825Z,99.90
2019-06-07T08:48:57.136Z,99.90
2019-06-07T08:51:28.288Z,99.90
2019-06-07T08:54:15.973Z,99.90
2019-06-07T08:56:32.968Z,99.90
2019-06-07T08:59:11.266Z,99.90
2019-06-07T09:01:37.321Z,99.90
2019-06-07T09:04:11.251Z,99.90
2019-06-07T09:09:15.488Z,99.90
2019-06-07T09:11:47.135Z,99.90
2019-06-07T09:14:18.411Z,99.90
2019-06-07T09:16:49.543Z,99.90
2019-06-07T09:19:20.825Z,99.90
2019-06-07T09:21:52.125Z,99.90
2019-06-07T09:24:23.560Z,99.90
2019-06-07T09:26:55.921Z,99.90
2019-06-07T09:29:28.373Z,99.90
2019-06-07T09:32:04.629Z,99.90
2019-06-07T09:34:34.510Z,99.90
2019-06-07T09:37:55.689Z,99.90
2019-06-07T09:39:39.979Z,99.90
2019-06-07T09:42:12.814Z,99.90
2019-06-07T09:44:44.525Z,99.90
2019-06-07T09:47:31.159Z,99.90
2019-06-07T09:49:48.706Z,99.90
2019-06-07T09:52:20.034Z,99.90
2019-06-07T09:55:19.576Z,99.90
2019-06-07T09:57:25.064Z,99.90
2019-06-07T09:59:57.553Z,99.90
2019-06-07T10:02:29.377Z,99.90
2019-06-07T10:05:05.223Z,99.90
2019-06-07T10:07:35.007Z,99.90
2019-06-07T10:12:39.791Z,99.90
2019-06-07T10:15:11.269Z,99.90
2019-06-07T10:17:42.883Z,99.90
2019-06-07T10:20:14.923Z,99.90
2019-06-07T10:22:46.516Z,99.90
2019-06-07T10:25:17.753Z,99.90
2019-06-07T10:27:49.061Z,99.90
2019-06-07T10:30:20.553Z,99.90
2019-06-07T10:32:52.794Z,99.90
2019-06-07T10:35:24.080Z,99.90
2019-06-07T10:37:58.076Z,99.90
2019-06-07T10:40:28.714Z,99.90
2019-06-07T10:43:01.221Z,99.90
2019-06-07T10:45:32.805Z,99.90
2019-06-07T10:48:04.091Z,99.90
2019-06-07T10:50:35.381Z,99.90
2019-06-07T10:53:06.692Z,99.90
2019-06-07T10:55:37.891Z,99.90
2019-06-07T10:58:09.216Z,99.90
2019-06-07T11:00:41.482Z,99.90
2019-06-07T11:03:14.243Z,99.90
2019-06-07T11:05:45.747Z,99.90
2019-06-07T11:08:17.394Z,99.90
2019-06-07T11:10:48.723Z,99.90
2019-06-07T11:13:19.934Z,99.90
2019-06-07T11:15:51.201Z,99.90
2019-06-07T11:18:22.486Z,99.90
2019-06-07T11:20:54.705Z,99.90
2019-06-07T11:23:26.186Z,99.90
2019-06-07T11:25:57.726Z,99.90
2019-06-07T11:28:29.016Z,99.90
2019-06-07T11:31:00.851Z,99.90
2019-06-07T11:33:32.136Z,99.90
2019-06-07T11:36:03.193Z,99.90
2019-06-07T11:38:34.440Z,99.90
2019-06-07T11:41:05.628Z,99.90
2019-06-07T11:43:36.852Z,99.90
2019-06-07T11:46:08.876Z,99.90
2019-06-07T11:48:40.380Z,99.90
2019-06-07T11:51:12.647Z,99.90
2019-06-07T11:53:43.864Z,99.90
2019-06-07T11:56:16.053Z,99.90
2019-06-07T11:58:48.387Z,99.90
2019-06-07T12:01:19.672Z,99.90
2019-06-07T12:03:51.130Z,99.90
2019-06-07T12:06:22.689Z,99.90
2019-06-07T12:08:53.987Z,99.90
2019-06-07T12:11:25.525Z,99.90
2019-06-07T12:13:56.775Z,99.90
2019-06-07T12:16:28.337Z,99.90
2019-06-07T12:18:59.563Z,99.90
2019-06-07T12:21:30.831Z,99.90
2019-06-07T12:24:02.418Z,99.90
2019-06-07T12:26:33.788Z,99.90
2019-06-07T12:29:05.428Z,99.90
2019-06-07T12:31:36.780Z,99.90
2019-06-07T12:34:07.998Z,99.50
2019-06-07T12:36:39.430Z,99.30
2019-06-07T12:39:11.804Z,98.90
2019-06-07T12:41:43.747Z,98.60
2019-06-07T12:44:14.933Z,98.30
2019-06-07T12:46:46.608Z,97.40
2019-06-07T12:49:19.127Z,97.50
2019-06-07T12:51:51.532Z,98.10
2019-06-07T12:54:23.876Z,97.90
2019-06-07T12:56:55.578Z,98.80
2019-06-07T12:59:26.689Z,98.60
2019-06-07T13:02:02.212Z,98.10
2019-06-07T13:04:30.945Z,98.30
2019-06-07T13:07:02.291Z,97.80
2019-06-07T13:09:36.015Z,97.80
2019-06-07T13:12:06.934Z,97.70
2019-06-07T13:14:38.372Z,97.30
2019-06-07T13:17:09.652Z,96.60
2019-06-07T13:19:41.611Z,97.50
2019-06-07T13:22:13.238Z,96.60
2019-06-07T13:24:44.787Z,96.80
2019-06-07T13:27:16.394Z,98.00
2019-06-07T13:29:47.652Z,98.50
2019-06-07T13:32:19.568Z,98.00
2019-06-07T13:34:51.116Z,98.00
2019-06-07T13:37:23.336Z,97.30
2019-06-07T13:39:54.761Z,96.60
2019-06-07T13:42:26.598Z,97.40
2019-06-07T13:44:58.135Z,97.30
2019-06-07T13:47:29.307Z,96.50
2019-06-07T13:50:00.818Z,96.80
2019-06-07T13:52:32.088Z,96.40
2019-06-07T13:55:03.320Z,96.70
2019-06-07T13:57:34.424Z,97.00
2019-06-07T14:00:10.928Z,96.00
2019-06-07T14:02:40.773Z,96.10
2019-06-07T14:05:12.031Z,96.10
2019-06-07T14:07:43.296Z,95.80
2019-06-07T14:10:16.482Z,96.00
2019-06-07T14:12:48.299Z,95.90
2019-06-07T14:15:20.462Z,96.00
2019-06-07T14:17:52.097Z,95.80
2019-06-07T14:20:26.613Z,95.60
2019-06-07T14:22:56.771Z,95.90
2019-06-07T14:25:29.262Z,95.90
2019-06-07T14:28:00.577Z,96.40
2019-06-07T14:30:32.641Z,96.10
2019-06-07T14:33:05.251Z,96.20
2019-06-07T14:35:36.491Z,95.90
2019-06-07T14:38:08.138Z,95.60
2019-06-07T14:40:39.417Z,95.60
2019-06-07T14:43:11.229Z,95.10
2019-06-07T14:45:42.453Z,96.30
2019-06-07T14:48:13.626Z,95.80
2019-06-07T14:50:44.913Z,96.30
2019-06-07T14:53:16.385Z,95.60
2019-06-07T14:55:47.602Z,95.20
2019-06-07T14:58:18.741Z,95.00
2019-06-07T15:00:49.957Z,95.10
2019-06-07T15:03:21.141Z,94.90
2019-06-07T15:05:52.231Z,94.50
2019-06-07T15:08:23.421Z,94.80
2019-06-07T15:10:54.631Z,94.70
2019-06-07T15:13:27.302Z,94.60
2019-06-07T15:15:58.701Z,94.70
2019-06-07T15:18:29.816Z,94.70
2019-06-07T15:21:01.155Z,94.30
2019-06-07T15:23:33.498Z,94.40
2019-06-07T15:26:04.937Z,94.80
2019-06-07T15:28:37.056Z,94.80
2019-06-07T15:31:09.160Z,94.90
2019-06-07T15:33:41.346Z,94.90
2019-06-07T15:36:12.594Z,94.80
2019-06-07T15:38:43.944Z,94.40
2019-06-07T15:41:15.619Z,94.60
2019-06-07T15:43:46.654Z,94.10
2019-06-07T15:46:17.950Z,94.20
2019-06-07T15:48:49.807Z,94.70
2019-06-07T15:51:21.214Z,94.50
2019-06-07T15:53:52.503Z,94.20
2019-06-07T15:56:24.338Z,94.10
2019-06-07T15:58:55.573Z,94.30
2019-06-07T16:01:26.906Z,94.30
2019-06-07T16:03:58.138Z,94.40
2019-06-07T16:06:29.453Z,94.60
2019-06-07T16:09:00.723Z,94.40
2019-06-07T16:11:34.653Z,94.90
2019-06-07T16:14:06.470Z,95.00
2019-06-07T16:16:38.984Z,95.00
2019-06-07T16:19:10.532Z,94.90
2019-06-07T16:21:41.851Z,94.90
2019-06-07T16:24:13.268Z,94.90
2019-06-07T16:26:46.982Z,95.10
2019-06-07T16:29:18.590Z,95.20
2019-06-07T16:31:50.455Z,95.40
2019-06-07T16:34:22.107Z,95.70
2019-06-07T16:36:53.669Z,95.60
2019-06-07T16:39:25.364Z,95.60
2019-06-07T16:41:56.848Z,95.60
2019-06-07T16:44:28.398Z,95.80
2019-06-07T16:46:59.978Z,95.90
2019-06-07T16:49:31.264Z,96.00
2019-06-07T16:52:02.632Z,96.20
2019-06-07T16:54:35.626Z,96.10
2019-06-07T16:57:07.190Z,96.40
2019-06-07T16:59:38.801Z,96.40
2019-06-07T17:02:10.429Z,96.30
2019-06-07T17:04:41.719Z,96.40
2019-06-07T17:07:13.624Z,96.60
2019-06-07T17:09:47.247Z,96.70
2019-06-07T17:12:18.712Z,96.90
2019-06-07T17:14:50.045Z,96.90
2019-06-07T17:17:21.343Z,97.10
2019-06-07T17:19:52.474Z,97.20
2019-06-07T17:22:24.063Z,97.40
2019-06-07T17:24:55.719Z,97.60
2019-06-07T17:27:27.306Z,97.60
2019-06-07T17:29:59.220Z,97.50
2019-06-07T17:32:30.501Z,97.40
2019-06-07T17:35:02.196Z,97.50
2019-06-07T17:37:33.688Z,97.70
2019-06-07T17:40:05.593Z,97.90
2019-06-07T17:42:36.901Z,98.40
2019-06-07T17:45:08.890Z,98.10
2019-06-07T17:47:41.951Z,98.20
2019-06-07T17:50:14.576Z,98.30
2019-06-07T17:52:46.030Z,98.30
2019-06-07T17:55:18.618Z,98.50
2019-06-07T17:57:50.890Z,98.60
2019-06-07T18:00:33.349Z,98.80
2019-06-07T18:02:57.170Z,98.90
2019-06-07T18:05:28.405Z,99.10
2019-06-07T18:07:59.889Z,99.30
2019-06-07T18:10:38.993Z,99.20
2019-06-07T18:13:10.273Z,99.30
2019-06-07T18:15:44.436Z,99.40
2019-06-07T18:18:16.135Z,99.50
2019-06-07T18:20:47.503Z,99.60
2019-06-07T18:23:19.140Z,99.70
2019-06-07T18:25:50.581Z,99.80
2019-06-07T18:28:21.984Z,99.90
2019-06-07T18:30:53.300Z,99.90
2019-06-07T18:33:24.505Z,99.90
2019-06-07T18:35:55.644Z,99.90
2019-06-07T18:38:27.138Z,99.90
2019-06-07T18:40:59.620Z,99.90
2019-06-07T18:43:31.994Z,99.90
2019-06-07T18:46:03.299Z,99.90
2019-06-07T18:48:34.799Z,99.90
2019-06-07T18:51:06.275Z,99.90
2019-06-07T18:53:37.481Z,99.90
2019-06-07T18:56:09.005Z,99.90
2019-06-07T18:58:40.256Z,99.90
2019-06-07T19:01:11.818Z,99.90
2019-06-07T19:03:46.926Z,99.90
2019-06-07T19:06:16.343Z,99.90
2019-06-07T19:08:48.444Z,99.90
2019-06-07T19:11:20.018Z,99.90
2019-06-07T19:13:51.308Z,99.90
2019-06-07T19:16:22.585Z,99.90
2019-06-07T19:18:53.793Z,99.90
2019-06-07T19:21:25.368Z,99.90
2019-06-07T19:23:56.491Z,99.90
2019-06-07T19:26:27.827Z,99.90
2019-06-07T19:28:59.041Z,99.90
2019-06-07T19:31:30.535Z,99.90
2019-06-07T19:34:01.860Z,99.90
2019-06-07T19:36:48.021Z,99.90
2019-06-07T19:39:07.737Z,99.90
2019-06-07T19:41:39.001Z,99.90
2019-06-07T19:44:10.659Z,99.90
2019-06-07T19:46:42.688Z,99.90
2019-06-07T19:49:14.347Z,99.90
2019-06-07T19:51:45.680Z,99.90
2019-06-07T19:54:17.524Z,99.90
2019-06-07T19:56:49.043Z,99.90
2019-06-07T19:59:20.625Z,99.90
2019-06-07T20:01:51.896Z,99.90
2019-06-07T20:04:23.447Z,99.90
2019-06-07T20:06:58.234Z,99.90
2019-06-07T20:09:31.227Z,99.90
2019-06-07T20:12:02.911Z,99.90
2019-06-07T20:14:34.244Z,99.90
2019-06-07T20:17:05.947Z,99.90
2019-06-07T20:19:37.556Z,99.90
2019-06-07T20:22:09.539Z,99.90
2019-06-07T20:24:41.296Z,99.90
2019-06-07T20:27:12.579Z,99.90
2019-06-07T20:29:43.926Z,99.90
2019-06-07T20:32:15.553Z,99.90
2019-06-07T20:34:46.770Z,99.90
2019-06-07T20:37:18.167Z,99.90
2019-06-07T20:39:49.399Z,99.90
2019-06-07T20:42:20.674Z,99.90
2019-06-07T20:44:51.985Z,99.90
2019-06-07T20:47:23.743Z,99.90
2019-06-07T20:49:55.126Z,99.90
2019-06-07T20:52:27.103Z,99.90
2019-06-07T20:54:58.644Z,99.90
2019-06-07T20:57:30.109Z,99.90
2019-06-07T21:00:11.600Z,99.90
2019-06-07T21:02:37.180Z,99.90
2019-06-07T21:05:09.895Z,99.90
2019-06-07T21:07:41.436Z,99.90
2019-06-07T21:10:12.821Z,99.90
2019-06-07T21:12:44.221Z,99.90
2019-06-07T21:15:15.700Z,99.90
2019-06-07T21:17:47.129Z,99.90
2019-06-07T21:20:18.629Z,99.90
2019-06-07T21:22:49.814Z,99.90
2019-06-07T21:25:22.204Z,99.90
2019-06-07T21:27:53.888Z,99.90
2019-06-07T21:30:25.103Z,99.90
2019-06-07T21:32:56.415Z,99.90
2019-06-07T21:35:27.696Z,99.90
2019-06-07T21:37:59.253Z,99.90
2019-06-07T21:40:30.611Z,99.90
2019-06-07T21:43:02.124Z,99.90
2019-06-07T21:45:33.724Z,99.90
2019-06-07T21:48:07.045Z,99.90
2019-06-07T21:50:38.699Z,99.90
2019-06-07T21:53:10.884Z,99.90
2019-06-07T21:55:42.051Z,99.90
2019-06-07T21:58:13.772Z,99.90
2019-06-07T22:01:25.824Z,99.90
2019-06-07T22:03:57.560Z,99.90
2019-06-07T22:06:28.858Z,99.90
2019-06-07T22:09:00.756Z,99.90
2019-06-07T22:11:34.440Z,99.90
2019-06-07T22:14:06.324Z,99.90
2019-06-07T22:16:37.782Z,99.90
2019-06-07T22:19:10.809Z,99.90
2019-06-07T22:21:42.102Z,99.90
2019-06-07T22:24:13.410Z,99.90
2019-06-07T22:26:44.669Z,99.90
2019-06-07T22:29:15.908Z,99.90
2019-06-07T22:31:48.082Z,99.90
2019-06-07T22:34:19.647Z,99.90
2019-06-07T22:36:50.843Z,99.90
2019-06-07T22:39:22.961Z,99.90
2019-06-07T22:41:54.609Z,99.90
2019-06-07T22:44:25.882Z,99.90
2019-06-07T22:46:57.190Z,99.90
2019-06-07T22:49:28.878Z,99.90
2019-06-07T22:52:08.708Z,99.90
2019-06-07T22:54:33.195Z,99.90
2019-06-07T22:57:10.183Z,99.90
2019-06-07T22:59:41.643Z,99.90
2019-06-07T23:02:12.786Z,99.90
2019-06-07T23:04:44.294Z,99.90
2019-06-07T23:07:17.120Z,99.90
2019-06-07T23:09:49.046Z,99.90
2019-06-07T23:12:20.304Z,99.90
2019-06-07T23:14:51.543Z,99.90
2019-06-07T23:17:23.179Z,99.90
2019-06-07T23:19:54.686Z,99.90
2019-06-07T23:22:25.879Z,99.90
2019-06-07T23:24:57.036Z,99.90
2019-06-07T23:27:28.487Z,99.90
2019-06-07T23:29:59.722Z,99.90
2019-06-07T23:32:30.990Z,99.90
2019-06-07T23:35:02.411Z,99.90
2019-06-07T23:37:33.535Z,99.90
2019-06-07T23:40:05.846Z,99.90
2019-06-07T23:42:37.607Z,99.90
2019-06-07T23:45:09.086Z,99.90
2019-06-07T23:47:40.638Z,99.90
2019-06-07T23:50:13.643Z,99.90
2019-06-07T23:52:45.143Z,99.90
2019-06-07T23:55:17.593Z,99.90
2019-06-07T23:57:49.477Z,99.90
